Axminster, United Kingdom
Current Conditions -  °F | °C
As of 5:50 AM on Saturday 27 Dec 2014 (Local Time) from EGDY Reporting Station
Clear Clear  
Wind Chill: 30°   Ceiling: Unl
Heat Index: 39°   Visibility: 6mi
Dew Point: 32°   Wind: 17mph
Humidity: 75%   Direction: 300°WNW
Pressure: 29.85"   Gusts: NA
Location:  50.78°N, 3°W
Report Text: EGDY 270550Z AUTO 30015KT 9999 NCD 04/00 Q1011
Loading
Personal Weather Stations






























Interactive Weather Map New forecast layout! Learn more

10-Day Weather Forecast

Advertisements
Track Severe Weather on mobile